KSSI/SSI METAR and TAF weather

Enter ICAO airport designator
Station Type Date Time Source
KSSI METAR 2021/05/11 22:22 UTC NOAA

KSSI 112222Z AUTO 16007KT 9SM VCTS SCT043 BKN070 OVC100 24/23 A3003 RMK AO2 LTG DSNT W RAB2154E19 TSE16 P0006 T02440228


Station Type Date Time Source
KSSI Decoded METAR 2021/05/11 22:22 UTC NOAA

BRUNSWICK MC KINNON AIRPORT , GA, United States (KSSI) 31-09N 081-23W 6M
May 11, 2021 - 06:22 PM EDT / 2021.05.11 2222 UTC
Wind: from the SSE (160 degrees) at 8 MPH (7 KT):0
Visibility: 9 mile(s):0
Sky conditions: overcast
Weather: thunder in the vicinity; Lightning observed
Precipitation last hour: 0.06 inches
Temperature: 75.9 F (24.4 C)
Dew Point: 73.0 F (22.8 C)
Relative Humidity: 90%
Pressure (altimeter): 30.03 in. Hg (1016 hPa)
ob: KSSI 112222Z AUTO 16007KT 9SM VCTS SCT043 BKN070 OVC100 24/23 A3003 RMK AO2 LTG DSNT W RAB2154E19 TSE16 P0006 T02440228
cycle: 22

Station Type Date Time Source
KSSI TAF 2021/05/11 22:10 UTC NOAA

TAF
AMD KSSI 112208Z 1122/1218 VRB03KT P6SM VCTS SCT040CB BKN100 BKN200
TEMPO 1122/1124 VRB15G25KT 2SM TSRA BKN030CB BKN100 BKN200
FM120000 15007KT P6SM VCSH BKN040 BKN100
FM120500 24004KT P6SM FEW050 BKN100

Example: see airport list